Time;durP1;ratioP1;P1;durP2;ratioP2;P2;SDS_P1;SDS_P2;PMS_P1;PMS_P2;Temp;Humidity;BMP_temperature;BMP_pressure;BME280_temperature;BME280_humidity;BME280_pressure;Samples;Min_cycle;Max_cycle;Signal;HPM_P1;HPM_P2
2022/08/07 00:00:04;;;;;;;5.20;3.10;;;;;;;14.26;81.80;101308.45;679192;1278;22454;-82
2022/08/07 00:15:34;;;;;;;4.10;2.70;;;;;;;14.00;81.97;101306.09;679307;1277;23171;-81
2022/08/07 00:30:48;;;;;;;4.30;2.90;;;;;;;13.71;83.16;101313.52;679210;1277;22487;-82
2022/08/07 00:45:51;;;;;;;3.00;2.40;;;;;;;13.46;83.12;101320.32;679057;1278;22486;-82
2022/08/07 01:00:55;;;;;;;4.90;2.70;;;;;;;13.20;83.46;101313.80;678898;1278;23094;-81
2022/08/07 01:15:59;;;;;;;4.80;2.10;;;;;;;13.04;84.51;101306.90;679134;1277;22486;-82
2022/08/07 01:31:08;;;;;;;5.80;2.90;;;;;;;12.86;84.38;101305.14;679180;1277;23143;-82
2022/08/07 01:46:19;;;;;;;5.60;3.10;;;;;;;12.68;85.03;101297.02;678871;1277;22485;-81
2022/08/07 02:01:30;;;;;;;5.50;2.50;;;;;;;12.56;85.90;101296.03;678998;1278;22420;-81
2022/08/07 02:16:55;;;;;;;4.90;2.80;;;;;;;12.34;86.53;101294.92;679153;1277;32346;-82
2022/08/07 02:32:02;;;;;;;4.00;2.90;;;;;;;12.15;86.86;101293.31;679074;1278;23240;-82
2022/08/07 02:47:06;;;;;;;5.20;3.10;;;;;;;12.10;87.35;101300.69;679029;1277;22596;-82
2022/08/07 03:02:23;;;;;;;4.60;3.20;;;;;;;12.00;88.59;101305.30;678974;1277;1174114;-82
2022/08/07 03:17:29;;;;;;;7.00;4.20;;;;;;;12.02;88.40;101299.06;679914;1277;22675;-82
2022/08/07 03:32:41;;;;;;;6.40;4.10;;;;;;;12.13;88.67;101305.02;679957;1277;22557;-83
2022/08/07 03:48:01;;;;;;;5.10;3.90;;;;;;;12.17;88.75;101298.56;679743;1277;23326;-83
2022/08/07 04:03:06;;;;;;;5.20;3.50;;;;;;;12.36;89.33;101302.84;679802;1277;22477;-83
2022/08/07 04:18:14;;;;;;;6.10;3.30;;;;;;;12.65;90.11;101313.34;678460;1277;22572;-83
2022/08/07 04:33:39;;;;;;;7.50;3.10;;;;;;;13.18;89.48;101326.26;679550;1277;22463;-83
2022/08/07 04:49:02;;;;;;;5.50;3.60;;;;;;;13.77;89.15;101330.55;679919;1276;22555;-83
2022/08/07 05:04:32;;;;;;;4.40;3.30;;;;;;;14.34;88.70;101333.19;680042;1275;22573;-81
2022/08/07 05:19:42;;;;;;;4.90;3.10;;;;;;;14.81;89.98;101338.67;679907;1275;22491;-81
2022/08/07 05:34:49;;;;;;;7.90;3.50;;;;;;;15.55;91.15;101343.79;680007;1277;22447;-81
2022/08/07 05:49:53;;;;;;;7.90;3.10;;;;;;;16.45;92.22;101342.89;680080;1275;22517;-81
2022/08/07 06:05:16;;;;;;;3.60;2.60;;;;;;;17.33;91.38;101342.64;679758;1277;22433;-81
2022/08/07 06:20:24;;;;;;;6.50;2.60;;;;;;;18.05;88.30;101342.35;680106;1277;22455;-82
2022/08/07 06:35:47;;;;;;;8.20;3.00;;;;;;;18.73;86.15;101342.55;680142;1276;22468;-82
2022/08/07 06:51:20;;;;;;;4.90;2.20;;;;;;;19.33;83.82;101340.59;679809;1277;22569;-81
2022/08/07 07:06:36;;;;;;;5.20;1.80;;;;;;;19.99;81.58;101351.84;679202;1278;23093;-83
2022/08/07 07:22:01;;;;;;;4.00;1.60;;;;;;;20.76;78.50;101359.52;678925;1279;22489;-82
2022/08/07 07:37:16;;;;;;;4.50;1.50;;;;;;;21.27;73.26;101358.48;679647;1277;22479;-83
2022/08/07 07:52:42;;;;;;;3.50;1.30;;;;;;;21.72;66.55;101348.73;679630;1277;22487;-82
2022/08/07 08:07:49;;;;;;;5.80;1.70;;;;;;;22.11;63.67;101345.40;679269;1278;22542;-82
2022/08/07 08:38:42;;;;;;;4.60;1.60;;;;;;;23.60;61.23;101353.95;679822;1276;23331;-83
2022/08/07 08:53:54;;;;;;;2.80;1.00;;;;;;;23.90;61.79;101355.50;679915;1276;23087;-82
2022/08/07 09:09:09;;;;;;;3.40;1.80;;;;;;;25.34;58.77;101356.85;679952;1277;23410;-82
2022/08/07 09:39:26;;;;;;;1.50;0.70;;;;;;;26.14;56.08;101335.60;638786;1312;1214034;-82
2022/08/07 09:54:56;;;;;;;1.30;0.90;;;;;;;27.28;55.02;101332.64;653689;1283;24366;-82
2022/08/07 10:10:32;;;;;;;2.20;0.70;;;;;;;26.35;53.86;101322.95;653972;1284;22544;-82
2022/08/07 10:26:26;;;;;;;1.40;0.60;;;;;;;26.88;53.68;101306.67;651699;1286;22731;-83
2022/08/07 10:41:35;;;;;;;1.70;0.80;;;;;;;28.29;51.53;101286.90;655337;1283;31390;-84
2022/08/07 10:57:02;;;;;;;1.20;0.80;;;;;;;27.77;49.06;101272.77;654655;1283;25279;-81
2022/08/07 11:12:21;;;;;;;2.90;0.90;;;;;;;28.91;47.83;101257.61;653726;1283;31093;-80
2022/08/07 11:27:56;;;;;;;2.10;1.00;;;;;;;27.62;47.31;101248.77;657718;1281;24349;-81
2022/08/07 11:43:18;;;;;;;1.00;0.80;;;;;;;28.86;47.98;101238.33;656573;1283;31700;-83
2022/08/07 11:58:59;;;;;;;6.60;4.10;;;;;;;28.83;48.27;101236.05;657022;1283;22580;-81
2022/08/07 12:14:07;;;;;;;1.70;0.70;;;;;;;28.02;48.11;101226.66;653281;1283;24462;-83
2022/08/07 12:29:16;;;;;;;;;;;;;;;28.60;46.63;101212.31;654647;1283;26476;-82
2022/08/07 12:44:44;;;;;;;1.40;0.80;;;;;;;28.42;46.92;101203.23;656746;1283;29850;-82
2022/08/07 12:59:53;;;;;;;2.40;1.10;;;;;;;30.07;46.18;101190.69;654416;1283;22556;-84
2022/08/07 13:15:26;;;;;;;2.00;0.80;;;;;;;29.01;46.03;101187.21;656030;1283;22588;-83
2022/08/07 13:30:37;;;;;;;1.50;0.80;;;;;;;28.47;46.79;101177.40;655379;1283;23518;-85
2022/08/07 13:45:53;;;;;;;1.20;0.50;;;;;;;28.21;46.40;101174.46;655372;1283;32365;-86
2022/08/07 14:01:18;;;;;;;1.20;0.50;;;;;;;29.33;45.51;101160.46;655192;1283;26506;-82
2022/08/07 14:16:33;;;;;;;1.80;0.50;;;;;;;28.84;44.55;101153.98;654910;1283;31877;-83
2022/08/07 14:31:40;;;;;;;2.00;0.40;;;;;;;28.71;45.64;101142.83;654876;1283;25400;-83
2022/08/07 14:46:57;;;;;;;3.70;0.70;;;;;;;29.64;44.72;101134.59;653386;1283;23507;-82
2022/08/07 15:02:22;;;;;;;1.90;0.60;;;;;;;28.28;45.26;101123.22;653543;1283;22631;-83
2022/08/07 15:18:00;;;;;;;2.70;0.70;;;;;;;28.46;46.30;101122.51;653467;1283;31566;-84
2022/08/07 15:33:05;;;;;;;1.00;0.50;;;;;;;29.30;46.22;101114.29;655247;1283;25335;-85
2022/08/07 15:48:28;;;;;;;0.90;0.70;;;;;;;28.64;46.67;101103.27;654552;1283;31283;-85
2022/08/07 16:03:38;;;;;;;3.00;1.10;;;;;;;27.67;47.91;101101.94;656479;1283;23599;-84
2022/08/07 16:19:18;;;;;;;5.50;1.50;;;;;;;27.32;48.95;101094.95;653862;1283;27696;-83
2022/08/07 16:34:42;;;;;;;2.90;1.10;;;;;;;27.01;49.30;101096.73;653924;1283;26618;-84
2022/08/07 16:50:09;;;;;;;4.70;1.90;;;;;;;26.36;50.78;101084.42;653923;1283;30727;-82
2022/08/07 17:05:59;;;;;;;17.50;7.90;;;;;;;25.97;50.91;101078.45;657179;1283;24424;-82
2022/08/07 17:21:43;;;;;;;18.10;6.80;;;;;;;25.24;53.02;101083.67;654013;1283;26569;-82
2022/08/07 17:37:00;;;;;;;15.10;6.00;;;;;;;24.82;54.60;101091.98;655131;1283;22547;-82
2022/08/07 17:52:33;;;;;;;3.30;1.70;;;;;;;24.14;56.54;101094.95;653558;1284;22706;-83
2022/08/07 18:07:45;;;;;;;4.80;1.80;;;;;;;23.59;57.96;101103.09;654094;1283;23116;-81
2022/08/07 18:22:57;;;;;;;4.00;1.70;;;;;;;23.12;59.12;101111.34;655360;1284;23507;-83
2022/08/07 18:38:26;;;;;;;8.30;2.00;;;;;;;22.52;60.17;101124.10;656418;1283;22710;-82
2022/08/07 18:54:03;;;;;;;6.70;2.10;;;;;;;21.96;61.82;101130.34;652366;1284;22555;-81
2022/08/07 19:09:47;;;;;;;7.40;2.40;;;;;;;21.47;63.56;101143.37;652889;1284;23327;-82
2022/08/07 19:25:02;;;;;;;6.40;2.90;;;;;;;21.09;64.32;101155.71;653506;1284;26773;-82
2022/08/07 19:40:11;;;;;;;10.30;3.80;;;;;;;20.64;65.34;101161.49;653888;1284;22797;-82
2022/08/07 19:55:21;;;;;;;11.80;4.90;;;;;;;20.24;66.21;101174.80;654602;1284;26530;-83
2022/08/07 20:10:30;;;;;;;9.00;2.40;;;;;;;19.79;68.26;101186.13;657776;1284;25393;-83
2022/08/07 20:25:54;;;;;;;8.70;3.00;;;;;;;19.49;69.01;101199.95;655433;1284;24432;-83
2022/08/07 20:41:02;;;;;;;5.70;2.20;;;;;;;19.17;70.10;101206.70;656240;1284;23715;-81
2022/08/07 20:56:09;;;;;;;12.20;3.50;;;;;;;18.93;70.85;101217.06;655613;1283;24351;-81
2022/08/07 21:11:20;;;;;;;5.20;2.10;;;;;;;18.67;72.81;101224.77;654855;1283;23511;-81
2022/08/07 21:26:48;;;;;;;2.80;2.30;;;;;;;18.63;72.74;101220.30;655389;1283;23732;-82
2022/08/07 21:42:17;;;;;;;10.10;2.80;;;;;;;18.59;73.31;101230.83;654876;1282;1717809;-82
2022/08/07 21:58:05;;;;;;;6.40;2.70;;;;;;;18.56;74.18;101229.36;657525;1283;22572;-81
2022/08/07 22:13:13;;;;;;;6.40;2.80;;;;;;;18.56;74.78;101223.65;657676;1286;24424;-82
2022/08/07 22:28:25;;;;;;;15.20;4.90;;;;;;;18.52;74.86;101226.58;654672;1286;22590;-82
2022/08/07 22:43:51;;;;;;;10.00;4.90;;;;;;;18.30;75.78;101220.73;652292;1286;25174;-81
2022/08/07 22:59:19;;;;;;;4.30;2.70;;;;;;;18.16;77.18;101211.88;653471;1286;22727;-81
2022/08/07 23:14:39;;;;;;;9.20;3.60;;;;;;;18.06;77.02;101211.95;656460;1281;22560;-81
2022/08/07 23:30:11;;;;;;;4.20;2.30;;;;;;;17.87;77.62;101209.85;657356;1282;23681;-81
2022/08/07 23:46:07;;;;;;;8.50;3.10;;;;;;;17.66;78.55;101215.73;656536;1281;24322;-82
